Terminal Aerodrome Forecast
Issued by NWS

Home | Current Version | Previous Version | Text Only | Print | Product List | Glossary On
Versions: 1 2 3 4 5 6 7 8 9 10 11 12 13 14 15 16 17 18 19 20
000
FTUS44 KTSA 241700
TAFMLC
TAF
KMLC 241720Z 2418/2518 22013G24KT P6SM BKN025
      TEMPO 2418/2420 6SM TSRA BKN025CB
     FM242100 30015G26KT P6SM BKN050
     FM250100 00000KT P6SM SKC=

USA.gov is the U.S. government's official web portal to all federal, state and local government web resources and services.